createdAt,value
2022-09-04T00:00:02.779Z,14.90
2022-09-04T00:01:02.955Z,14.90
2022-09-04T00:02:02.922Z,14.80
2022-09-04T00:03:03.056Z,14.80
2022-09-04T00:04:03.107Z,14.80
2022-09-04T00:05:03.233Z,14.80
2022-09-04T00:06:03.224Z,14.80
2022-09-04T00:07:03.359Z,14.80
2022-09-04T00:08:03.425Z,14.80
2022-09-04T00:09:03.481Z,14.80
2022-09-04T00:10:03.585Z,14.70
2022-09-04T00:11:02.788Z,14.70
2022-09-04T00:12:02.750Z,14.70
2022-09-04T00:13:02.868Z,14.70
2022-09-04T00:14:02.939Z,14.70
2022-09-04T00:15:02.965Z,14.70
2022-09-04T00:16:02.944Z,14.70
2022-09-04T00:17:03.255Z,14.70
2022-09-04T00:18:03.109Z,14.60
2022-09-04T00:19:03.169Z,14.60
2022-09-04T00:20:03.262Z,14.60
2022-09-04T00:21:03.291Z,14.60
2022-09-04T00:22:03.316Z,14.60
2022-09-04T00:23:03.349Z,14.50
2022-09-04T00:24:03.278Z,14.50
2022-09-04T00:25:03.344Z,14.50
2022-09-04T00:26:03.397Z,14.50
2022-09-04T00:27:03.503Z,14.50
2022-09-04T00:28:03.615Z,14.50
2022-09-04T00:29:03.583Z,14.50
2022-09-04T00:30:02.667Z,14.40
2022-09-04T00:31:02.827Z,14.40
2022-09-04T00:32:02.770Z,14.40
2022-09-04T00:33:02.856Z,14.40
2022-09-04T00:34:02.882Z,14.40
2022-09-04T00:35:03.013Z,14.40
2022-09-04T00:36:03.005Z,14.40
2022-09-04T00:37:03.017Z,14.30
2022-09-04T00:38:03.049Z,14.30
2022-09-04T00:39:03.047Z,14.30
2022-09-04T00:40:03.293Z,14.30
2022-09-04T00:41:03.128Z,14.30
2022-09-04T00:42:03.201Z,14.30
2022-09-04T00:43:03.259Z,14.30
2022-09-04T00:44:03.422Z,14.30
2022-09-04T00:45:03.422Z,14.30
2022-09-04T00:46:03.543Z,14.20
2022-09-04T00:47:03.550Z,14.20
2022-09-04T00:48:03.066Z,14.20
2022-09-04T00:49:03.122Z,14.20
2022-09-04T00:50:03.184Z,14.20
2022-09-04T00:51:03.185Z,14.20
2022-09-04T00:52:03.333Z,14.20
2022-09-04T00:53:06.082Z,14.20
2022-09-04T00:54:03.643Z,14.20
2022-09-04T00:55:02.597Z,14.10
2022-09-04T00:56:02.622Z,14.10
2022-09-04T00:57:02.608Z,14.10
2022-09-04T00:58:02.667Z,14.10
2022-09-04T00:59:03.378Z,14.10
2022-09-04T01:00:03.421Z,14.10
2022-09-04T01:01:03.628Z,14.10
2022-09-04T01:02:03.604Z,14.10
2022-09-04T01:03:02.806Z,14.00
2022-09-04T01:04:02.905Z,14.00
2022-09-04T01:05:02.930Z,14.00
2022-09-04T01:06:03.089Z,14.00
2022-09-04T01:07:03.118Z,14.00
2022-09-04T01:08:03.113Z,14.00
2022-09-04T01:09:02.605Z,14.00
2022-09-04T01:10:02.752Z,14.00
2022-09-04T01:11:02.766Z,13.90
2022-09-04T01:12:02.819Z,13.90
2022-09-04T01:13:02.781Z,13.90
2022-09-04T01:14:02.862Z,13.90
2022-09-04T01:15:02.899Z,13.90
2022-09-04T01:16:03.301Z,13.90
2022-09-04T01:17:03.329Z,14.00
2022-09-04T01:18:03.323Z,13.90
2022-09-04T01:19:03.516Z,13.90
2022-09-04T01:20:03.625Z,13.90
2022-09-04T01:21:03.576Z,13.90
2022-09-04T01:22:03.614Z,13.90
2022-09-04T01:23:03.642Z,13.90
2022-09-04T01:24:03.591Z,13.90
2022-09-04T01:25:02.652Z,13.90
2022-09-04T01:26:02.661Z,13.90
2022-09-04T01:27:02.716Z,13.90
2022-09-04T01:28:02.774Z,13.90
2022-09-04T01:29:02.725Z,13.90
2022-09-04T01:30:02.872Z,13.80
2022-09-04T01:31:02.925Z,13.80
2022-09-04T01:32:03.095Z,13.80
2022-09-04T01:33:02.995Z,13.80
2022-09-04T01:34:03.032Z,13.80
2022-09-04T01:35:03.002Z,13.80
2022-09-04T01:36:03.137Z,13.80
2022-09-04T01:37:03.405Z,13.80
2022-09-04T01:38:03.483Z,13.70
2022-09-04T01:39:03.412Z,13.70
2022-09-04T01:40:03.428Z,13.70
2022-09-04T01:41:03.461Z,13.70
2022-09-04T01:42:03.439Z,13.60
2022-09-04T01:43:03.488Z,13.60
2022-09-04T01:44:03.458Z,13.60
2022-09-04T01:45:03.570Z,13.60
2022-09-04T01:46:02.726Z,13.60
2022-09-04T01:47:03.294Z,13.60
2022-09-04T01:48:03.375Z,13.60
2022-09-04T01:49:03.049Z,13.60
2022-09-04T01:50:03.125Z,13.60
2022-09-04T01:51:03.137Z,13.60
2022-09-04T01:52:03.236Z,13.60
2022-09-04T01:53:03.175Z,13.60
2022-09-04T01:54:03.239Z,13.50
2022-09-04T01:55:03.201Z,13.50
2022-09-04T01:56:03.281Z,13.50
2022-09-04T01:57:03.425Z,13.50
2022-09-04T01:58:03.581Z,13.50
2022-09-04T01:59:03.577Z,13.50
2022-09-04T02:00:02.604Z,13.50
2022-09-04T02:01:02.835Z,13.50
2022-09-04T02:02:02.859Z,13.50
2022-09-04T02:03:02.860Z,13.50
2022-09-04T02:04:02.926Z,13.50
2022-09-04T02:05:06.383Z,13.50
2022-09-04T02:06:03.038Z,13.50
2022-09-04T02:07:03.163Z,13.40
2022-09-04T02:08:03.194Z,13.50
2022-09-04T02:09:03.265Z,13.40
2022-09-04T02:10:03.370Z,13.40
2022-09-04T02:11:03.521Z,13.40
2022-09-04T02:12:03.499Z,13.40
2022-09-04T02:13:03.550Z,13.40
2022-09-04T02:14:03.587Z,13.40
2022-09-04T02:15:03.551Z,13.40
2022-09-04T02:16:03.556Z,13.40
2022-09-04T02:17:03.599Z,13.40
2022-09-04T02:18:03.600Z,13.40
2022-09-04T02:19:02.622Z,13.40
2022-09-04T02:20:02.692Z,13.30
2022-09-04T02:21:02.835Z,13.30
2022-09-04T02:22:02.956Z,13.30
2022-09-04T02:23:03.594Z,13.30
2022-09-04T02:24:03.628Z,13.30
2022-09-04T02:25:03.658Z,13.30
2022-09-04T02:26:03.590Z,13.30
2022-09-04T02:27:02.738Z,13.30
2022-09-04T02:28:03.100Z,13.30
2022-09-04T02:29:03.023Z,13.30
2022-09-04T02:30:03.377Z,13.30
2022-09-04T02:31:03.521Z,13.30
2022-09-04T02:32:03.527Z,13.30
2022-09-04T02:33:03.540Z,13.30
2022-09-04T02:34:03.569Z,13.30
2022-09-04T02:35:03.624Z,13.30
2022-09-04T02:36:02.711Z,13.30
2022-09-04T02:37:02.708Z,13.30
2022-09-04T02:38:02.726Z,13.30
2022-09-04T02:39:02.735Z,13.30
2022-09-04T02:40:02.766Z,13.20
2022-09-04T02:41:02.820Z,13.20
2022-09-04T02:42:02.838Z,13.20
2022-09-04T02:43:02.769Z,13.20
2022-09-04T02:44:02.918Z,13.20
2022-09-04T02:45:02.888Z,13.20
2022-09-04T02:46:02.900Z,13.20
2022-09-04T02:47:03.049Z,13.20
2022-09-04T02:48:03.069Z,13.20
2022-09-04T02:49:03.161Z,13.20
2022-09-04T02:50:03.241Z,13.20
2022-09-04T02:51:03.252Z,13.10
2022-09-04T02:52:03.306Z,13.20
2022-09-04T02:53:03.402Z,13.20
2022-09-04T02:54:03.397Z,13.10
2022-09-04T02:55:03.349Z,13.10
2022-09-04T02:56:03.407Z,13.10
2022-09-04T02:57:03.520Z,13.10
2022-09-04T02:58:03.532Z,13.10
2022-09-04T02:59:02.902Z,13.10
2022-09-04T03:00:03.052Z,13.10
2022-09-04T03:01:03.173Z,13.10
2022-09-04T03:02:03.288Z,13.10
2022-09-04T03:03:03.281Z,13.10
2022-09-04T03:04:03.453Z,13.10
2022-09-04T03:05:03.423Z,13.10
2022-09-04T03:06:02.924Z,13.10
2022-09-04T03:07:02.893Z,13.00
2022-09-04T03:08:02.988Z,13.00
2022-09-04T03:09:03.055Z,13.00
2022-09-04T03:10:03.034Z,13.00
2022-09-04T03:11:02.989Z,13.00
2022-09-04T03:12:03.165Z,13.00
2022-09-04T03:13:02.979Z,13.00
2022-09-04T03:14:03.031Z,13.00
2022-09-04T03:15:03.019Z,13.00
2022-09-04T03:16:03.082Z,13.00
2022-09-04T03:17:03.209Z,13.00
2022-09-04T03:18:03.200Z,13.00
2022-09-04T03:19:03.275Z,13.00
2022-09-04T03:20:03.224Z,13.00
2022-09-04T03:21:03.335Z,13.00
2022-09-04T03:22:03.373Z,13.00
2022-09-04T03:23:03.380Z,13.00
2022-09-04T03:24:03.489Z,13.00
2022-09-04T03:25:03.567Z,12.90
2022-09-04T03:26:02.648Z,12.90
2022-09-04T03:27:02.742Z,12.90
2022-09-04T03:28:02.867Z,12.90
2022-09-04T03:29:02.837Z,12.90
2022-09-04T03:30:02.905Z,12.90
2022-09-04T03:31:02.978Z,12.90
2022-09-04T03:32:13.658Z,12.90
2022-09-04T03:33:02.999Z,12.90
2022-09-04T03:34:03.094Z,12.90
2022-09-04T03:35:03.098Z,12.90
2022-09-04T03:36:03.110Z,12.90
2022-09-04T03:37:03.083Z,12.90
2022-09-04T03:38:03.020Z,12.90
2022-09-04T03:39:03.185Z,12.90
2022-09-04T03:40:03.357Z,12.90
2022-09-04T03:41:03.221Z,12.90
2022-09-04T03:42:03.281Z,12.90
2022-09-04T03:43:03.385Z,12.90
2022-09-04T03:44:03.469Z,12.90
2022-09-04T03:45:03.477Z,12.90
2022-09-04T03:46:03.482Z,12.90
2022-09-04T03:47:03.486Z,12.80
2022-09-04T03:48:03.639Z,12.80
2022-09-04T03:49:02.656Z,12.80
2022-09-04T03:50:02.778Z,12.80
2022-09-04T03:51:02.724Z,12.80
2022-09-04T03:52:02.852Z,12.80
2022-09-04T03:53:02.866Z,12.80
2022-09-04T03:54:02.945Z,12.80
2022-09-04T03:55:03.039Z,12.80
2022-09-04T03:56:03.038Z,12.80
2022-09-04T03:57:03.075Z,12.80
2022-09-04T03:58:02.991Z,12.80
2022-09-04T03:59:03.057Z,12.80
2022-09-04T04:00:03.152Z,12.80
2022-09-04T04:01:03.305Z,12.80
2022-09-04T04:02:03.166Z,12.80
2022-09-04T04:03:03.359Z,12.70
2022-09-04T04:04:03.329Z,12.70
2022-09-04T04:05:03.313Z,12.70
2022-09-04T04:06:03.290Z,12.70
2022-09-04T04:07:03.274Z,12.70
2022-09-04T04:08:03.434Z,12.70
2022-09-04T04:09:03.553Z,12.70
2022-09-04T04:10:03.552Z,12.70
2022-09-04T04:11:03.620Z,12.70
2022-09-04T04:12:03.581Z,12.70
2022-09-04T04:13:03.602Z,12.70
2022-09-04T04:14:03.665Z,12.70
2022-09-04T04:15:02.662Z,12.60
2022-09-04T04:16:02.837Z,12.70
2022-09-04T04:17:02.877Z,12.60
2022-09-04T04:18:02.898Z,12.60
2022-09-04T04:19:02.857Z,12.60
2022-09-04T04:20:02.949Z,12.60
2022-09-04T04:21:02.961Z,12.60
2022-09-04T04:22:03.031Z,12.60
2022-09-04T04:23:03.116Z,12.60
2022-09-04T04:24:03.145Z,12.60
2022-09-04T04:25:03.318Z,12.60
2022-09-04T04:26:03.395Z,12.60
2022-09-04T04:27:03.263Z,12.60
2022-09-04T04:28:03.230Z,12.60
2022-09-04T04:29:03.323Z,12.60
2022-09-04T04:30:03.341Z,12.60
2022-09-04T04:31:03.400Z,12.60
2022-09-04T04:32:03.415Z,12.60
2022-09-04T04:33:03.429Z,12.60
2022-09-04T04:34:03.537Z,12.60
2022-09-04T04:35:03.469Z,12.60
2022-09-04T04:36:03.555Z,12.60
2022-09-04T04:37:02.653Z,12.60
2022-09-04T04:38:02.708Z,12.60
2022-09-04T04:39:02.788Z,12.60
2022-09-04T04:40:02.847Z,12.50
2022-09-04T04:41:02.700Z,12.50
2022-09-04T04:42:02.677Z,12.50
2022-09-04T04:43:02.819Z,12.50
2022-09-04T04:44:02.813Z,12.50
2022-09-04T04:45:02.738Z,12.50
2022-09-04T04:46:02.788Z,12.50
2022-09-04T04:47:02.936Z,12.50
2022-09-04T04:48:03.046Z,12.50
2022-09-04T04:49:03.010Z,12.50
2022-09-04T04:50:03.094Z,12.50
2022-09-04T04:51:03.044Z,12.50
2022-09-04T04:52:03.188Z,12.50
2022-09-04T04:53:03.175Z,12.50
2022-09-04T04:54:04.597Z,12.50
2022-09-04T04:55:03.162Z,12.50
2022-09-04T04:56:03.186Z,12.50
2022-09-04T04:57:03.125Z,12.50
2022-09-04T04:58:03.167Z,12.50
2022-09-04T04:59:03.209Z,12.50
2022-09-04T05:00:03.400Z,12.50
2022-09-04T05:01:03.425Z,12.60
2022-09-04T05:02:03.694Z,12.60
2022-09-04T05:03:03.714Z,12.50
2022-09-04T05:04:02.711Z,12.60
2022-09-04T05:05:02.714Z,12.60
2022-09-04T05:06:02.812Z,12.60
2022-09-04T05:07:03.152Z,12.60
2022-09-04T05:08:07.652Z,12.60
2022-09-04T05:09:02.909Z,12.60
2022-09-04T05:10:03.032Z,12.60
2022-09-04T05:11:02.978Z,12.60
2022-09-04T05:12:03.028Z,12.60
2022-09-04T05:13:03.071Z,12.60
2022-09-04T05:14:03.139Z,12.70
2022-09-04T05:15:03.108Z,12.70
2022-09-04T05:16:09.151Z,12.70
2022-09-04T05:17:03.350Z,12.70
2022-09-04T05:18:03.574Z,12.80
2022-09-04T05:19:03.602Z,12.80
2022-09-04T05:20:03.188Z,12.90
2022-09-04T05:21:03.154Z,12.90
2022-09-04T05:22:03.333Z,13.00
2022-09-04T05:23:03.412Z,13.10
2022-09-04T05:24:03.510Z,13.20
2022-09-04T05:25:03.396Z,13.30
2022-09-04T05:26:03.393Z,13.40
2022-09-04T05:27:03.343Z,13.50
2022-09-04T05:28:03.401Z,13.60
2022-09-04T05:29:03.619Z,13.80
2022-09-04T05:30:03.637Z,13.90
2022-09-04T05:31:02.822Z,14.00
2022-09-04T05:32:02.796Z,14.20
2022-09-04T05:33:02.827Z,14.40
2022-09-04T05:34:02.946Z,14.50
2022-09-04T05:35:02.926Z,14.70
2022-09-04T05:36:02.995Z,14.80
2022-09-04T05:37:03.072Z,15.00
2022-09-04T05:38:03.128Z,15.20
2022-09-04T05:39:03.099Z,15.30
2022-09-04T05:40:03.243Z,15.50
2022-09-04T05:41:03.218Z,15.60
2022-09-04T05:42:06.529Z,15.80
2022-09-04T05:43:03.227Z,15.90
2022-09-04T05:44:03.274Z,16.10
2022-09-04T05:45:03.352Z,16.20
2022-09-04T05:46:03.392Z,16.30
2022-09-04T05:47:03.259Z,16.50
2022-09-04T05:48:03.420Z,16.60
2022-09-04T05:49:03.459Z,16.70
2022-09-04T05:50:03.481Z,16.80
2022-09-04T05:51:03.565Z,17.00
2022-09-04T05:52:03.560Z,17.10
2022-09-04T05:53:03.642Z,17.20
2022-09-04T05:54:02.697Z,17.40
2022-09-04T05:55:02.761Z,17.50
2022-09-04T05:56:02.748Z,17.60
2022-09-04T05:57:02.727Z,17.70
2022-09-04T05:58:02.892Z,17.80
2022-09-04T05:59:02.989Z,17.90
2022-09-04T06:00:03.053Z,18.10
2022-09-04T06:01:03.162Z,18.20
2022-09-04T06:02:03.138Z,18.30
2022-09-04T06:03:03.242Z,18.40
2022-09-04T06:04:03.248Z,18.50
2022-09-04T06:05:03.203Z,18.60
2022-09-04T06:06:03.239Z,18.70
2022-09-04T06:07:03.204Z,18.80
2022-09-04T06:08:03.301Z,18.90
2022-09-04T06:09:03.274Z,19.00
2022-09-04T06:10:03.254Z,19.10
2022-09-04T06:11:03.301Z,19.20
2022-09-04T06:12:03.383Z,19.30
2022-09-04T06:13:03.439Z,19.30
2022-09-04T06:14:03.398Z,19.40
2022-09-04T06:15:03.502Z,19.50
2022-09-04T06:16:03.613Z,19.60
2022-09-04T06:17:02.697Z,19.70
2022-09-04T06:18:02.809Z,19.70
2022-09-04T06:19:02.776Z,19.80
2022-09-04T06:20:02.897Z,19.90
2022-09-04T06:21:02.877Z,20.00
2022-09-04T06:22:02.711Z,20.10
2022-09-04T06:23:03.238Z,20.10
2022-09-04T06:24:02.713Z,20.20
2022-09-04T06:25:02.859Z,20.30
2022-09-04T06:26:02.963Z,20.30
2022-09-04T06:27:03.098Z,20.40
2022-09-04T06:28:03.095Z,20.50
2022-09-04T06:29:05.563Z,20.50
2022-09-04T06:30:03.096Z,20.60
2022-09-04T06:31:03.280Z,20.70
2022-09-04T06:32:03.122Z,20.70
2022-09-04T06:33:03.243Z,20.80
2022-09-04T06:34:03.240Z,20.80
2022-09-04T06:35:02.965Z,20.90
2022-09-04T06:36:02.943Z,21.00
2022-09-04T06:37:03.073Z,21.00
2022-09-04T06:38:03.056Z,21.10
2022-09-04T06:39:03.068Z,21.10
2022-09-04T06:40:02.891Z,21.20
2022-09-04T06:41:02.940Z,21.20
2022-09-04T06:42:02.922Z,21.30
2022-09-04T06:43:03.026Z,21.40
2022-09-04T06:44:03.134Z,21.40
2022-09-04T06:45:03.212Z,21.50
2022-09-04T06:46:03.436Z,21.50
2022-09-04T06:47:03.443Z,21.60
2022-09-04T06:48:03.575Z,21.60
2022-09-04T06:49:02.649Z,21.70
2022-09-04T06:50:02.772Z,21.70
2022-09-04T06:51:02.718Z,21.70
2022-09-04T06:52:02.743Z,21.80
2022-09-04T06:53:04.374Z,21.80
2022-09-04T06:54:02.941Z,21.80
2022-09-04T06:55:02.956Z,21.90
2022-09-04T06:56:02.978Z,21.90
2022-09-04T06:57:02.926Z,21.90
2022-09-04T06:58:02.977Z,22.00
2022-09-04T06:59:02.987Z,22.00
2022-09-04T07:00:03.080Z,22.00
2022-09-04T07:01:03.178Z,22.10
2022-09-04T07:02:03.254Z,22.10
2022-09-04T07:03:03.292Z,22.20
2022-09-04T07:04:03.262Z,22.20
2022-09-04T07:05:03.381Z,22.30
2022-09-04T07:06:03.325Z,22.30
2022-09-04T07:07:03.452Z,22.30
2022-09-04T07:08:03.514Z,22.30
2022-09-04T07:09:03.504Z,22.40
2022-09-04T07:10:04.316Z,22.40
2022-09-04T07:11:03.587Z,22.40
2022-09-04T07:12:02.694Z,22.50
2022-09-04T07:13:02.848Z,22.50
2022-09-04T07:14:02.784Z,22.50
2022-09-04T07:15:02.790Z,22.50
2022-09-04T07:16:02.947Z,22.50
2022-09-04T07:17:03.073Z,22.60
2022-09-04T07:18:03.134Z,22.60
2022-09-04T07:19:03.174Z,22.60
2022-09-04T07:20:03.324Z,22.60
2022-09-04T07:21:03.269Z,22.60
2022-09-04T07:22:03.330Z,22.70
2022-09-04T07:23:03.444Z,22.70
2022-09-04T07:24:03.552Z,22.60
2022-09-04T07:25:03.638Z,22.60
2022-09-04T07:26:02.752Z,22.60
2022-09-04T07:27:02.758Z,22.60
2022-09-04T07:28:02.810Z,22.60
2022-09-04T07:29:02.955Z,22.60
2022-09-04T07:30:03.128Z,22.70
2022-09-04T07:31:03.171Z,22.70
2022-09-04T07:32:03.146Z,22.70
2022-09-04T07:33:03.157Z,22.80
2022-09-04T07:34:03.170Z,22.70
2022-09-04T07:35:03.143Z,22.80
2022-09-04T07:36:03.245Z,22.80
2022-09-04T07:37:03.252Z,22.80
2022-09-04T07:38:03.373Z,22.80
2022-09-04T07:39:03.344Z,22.80
2022-09-04T07:40:03.514Z,22.80
2022-09-04T07:41:03.671Z,22.80
2022-09-04T07:42:02.646Z,22.80
2022-09-04T07:43:02.711Z,22.90
2022-09-04T07:44:02.773Z,22.90
2022-09-04T07:45:02.726Z,23.00
2022-09-04T07:46:02.813Z,23.00
2022-09-04T07:47:02.784Z,23.00
2022-09-04T07:48:02.770Z,23.00
2022-09-04T07:49:02.791Z,23.10
2022-09-04T07:50:02.786Z,23.10
2022-09-04T07:51:02.977Z,23.10
2022-09-04T07:52:02.923Z,23.10
2022-09-04T07:53:04.288Z,23.10
2022-09-04T07:54:03.017Z,23.20
2022-09-04T07:55:03.124Z,23.20
2022-09-04T07:56:03.054Z,23.20
2022-09-04T07:57:03.162Z,23.30
2022-09-04T07:58:03.165Z,23.30
2022-09-04T07:59:03.353Z,23.30
2022-09-04T08:00:03.259Z,23.30
2022-09-04T08:01:03.406Z,23.40
2022-09-04T08:02:03.506Z,23.40
2022-09-04T08:03:03.452Z,23.40
2022-09-04T08:04:02.801Z,23.40
2022-09-04T08:05:02.840Z,23.50
2022-09-04T08:06:02.812Z,23.50
2022-09-04T08:07:02.792Z,23.50
2022-09-04T08:08:02.809Z,23.60
2022-09-04T08:09:02.832Z,23.60
2022-09-04T08:10:02.937Z,23.60
2022-09-04T08:11:02.855Z,23.60
2022-09-04T08:12:02.907Z,23.70
2022-09-04T08:13:03.000Z,23.70
2022-09-04T08:14:02.960Z,23.70
2022-09-04T08:15:02.935Z,23.70
2022-09-04T08:16:03.005Z,23.70
2022-09-04T08:17:03.098Z,23.70
2022-09-04T08:18:03.183Z,23.80
2022-09-04T08:19:03.285Z,23.80
2022-09-04T08:20:03.433Z,23.80
2022-09-04T08:21:03.258Z,23.80
2022-09-04T08:22:03.192Z,23.80
2022-09-04T08:23:03.216Z,23.80
2022-09-04T08:24:03.245Z,23.80
2022-09-04T08:25:03.226Z,23.80
2022-09-04T08:26:03.261Z,23.70
2022-09-04T08:27:03.320Z,23.70
2022-09-04T08:28:03.414Z,23.70
2022-09-04T08:29:03.419Z,23.70
2022-09-04T08:30:03.414Z,23.70
2022-09-04T08:31:03.600Z,23.70
2022-09-04T08:32:03.592Z,23.70
2022-09-04T08:33:03.536Z,23.70
2022-09-04T08:34:02.754Z,23.70
2022-09-04T08:35:02.761Z,23.80
2022-09-04T08:36:02.795Z,23.70
2022-09-04T08:37:02.840Z,23.80
2022-09-04T08:38:02.782Z,23.80
2022-09-04T08:39:06.815Z,23.80
2022-09-04T08:40:02.954Z,23.80
2022-09-04T08:41:02.876Z,23.80
2022-09-04T08:42:02.935Z,23.80
2022-09-04T08:43:02.838Z,23.80
2022-09-04T08:44:03.025Z,23.80
2022-09-04T08:45:02.980Z,23.80
2022-09-04T08:46:03.103Z,23.80
2022-09-04T08:47:03.077Z,23.80
2022-09-04T08:48:03.079Z,23.80
2022-09-04T08:49:03.162Z,23.80
2022-09-04T08:50:03.161Z,23.80
2022-09-04T08:51:03.172Z,23.80
2022-09-04T08:52:03.238Z,23.80
2022-09-04T08:53:04.083Z,23.90
2022-09-04T08:54:03.363Z,23.90
2022-09-04T08:55:03.396Z,23.90
2022-09-04T08:56:03.360Z,23.90
2022-09-04T08:57:03.377Z,23.90
2022-09-04T08:58:03.422Z,24.00
2022-09-04T08:59:03.386Z,24.00
2022-09-04T09:00:03.610Z,23.90
2022-09-04T09:01:03.640Z,24.00
2022-09-04T09:02:02.792Z,24.00
2022-09-04T09:03:03.568Z,24.00
2022-09-04T09:04:03.621Z,24.00
2022-09-04T09:05:03.648Z,24.00
2022-09-04T09:06:02.635Z,24.00
2022-09-04T09:07:02.809Z,24.10
2022-09-04T09:08:02.794Z,24.10
2022-09-04T09:09:02.891Z,24.10
2022-09-04T09:10:03.003Z,24.10
2022-09-04T09:11:03.243Z,24.10
2022-09-04T09:12:03.088Z,24.10
2022-09-04T09:13:03.066Z,24.10
2022-09-04T09:14:03.277Z,24.10
2022-09-04T09:15:03.340Z,24.20
2022-09-04T09:16:03.283Z,24.20
2022-09-04T09:17:03.485Z,24.20
2022-09-04T09:18:03.501Z,24.20
2022-09-04T09:19:03.556Z,24.20
2022-09-04T09:20:02.615Z,24.20
2022-09-04T09:21:03.378Z,24.20
2022-09-04T09:22:03.602Z,24.20
2022-09-04T09:23:02.691Z,24.20
2022-09-04T09:24:02.678Z,24.20
2022-09-04T09:25:02.710Z,24.20
2022-09-04T09:26:02.733Z,24.20
2022-09-04T09:27:02.868Z,24.30
2022-09-04T09:28:02.806Z,24.30
2022-09-04T09:29:02.958Z,24.30
2022-09-04T09:30:03.078Z,24.40
2022-09-04T09:31:03.271Z,24.40
2022-09-04T09:32:04.080Z,24.40
2022-09-04T09:33:03.130Z,24.40
2022-09-04T09:34:03.228Z,24.40
2022-09-04T09:35:03.333Z,24.40
2022-09-04T09:36:03.399Z,24.50
2022-09-04T09:37:03.320Z,24.50
2022-09-04T09:38:04.587Z,24.50
2022-09-04T09:39:03.383Z,24.50
2022-09-04T09:40:03.453Z,24.50
2022-09-04T09:41:02.665Z,24.50
2022-09-04T09:42:02.655Z,24.60
2022-09-04T09:43:02.647Z,24.60
2022-09-04T09:44:03.327Z,24.60
2022-09-04T09:45:03.353Z,24.60
2022-09-04T09:46:03.320Z,24.70
2022-09-04T09:47:03.372Z,24.70
2022-09-04T09:48:03.355Z,24.70
2022-09-04T09:49:03.354Z,24.80
2022-09-04T09:50:03.466Z,24.80
2022-09-04T09:51:03.496Z,24.80
2022-09-04T09:52:02.639Z,24.80
2022-09-04T09:53:02.727Z,24.90
2022-09-04T09:54:02.657Z,24.90
2022-09-04T09:55:02.738Z,24.90
2022-09-04T09:56:02.618Z,24.90
2022-09-04T09:57:02.945Z,25.00
2022-09-04T09:58:02.876Z,25.00
2022-09-04T09:59:02.998Z,25.00
2022-09-04T10:00:03.017Z,25.00
2022-09-04T10:01:06.438Z,25.00
2022-09-04T10:02:03.209Z,25.00
2022-09-04T10:03:03.162Z,25.10
2022-09-04T10:04:03.235Z,25.10
2022-09-04T10:05:03.380Z,25.10
2022-09-04T10:06:03.578Z,25.10
2022-09-04T10:07:03.649Z,25.10
2022-09-04T10:08:03.509Z,25.10
2022-09-04T10:09:07.217Z,25.10
2022-09-04T10:10:02.615Z,25.20
2022-09-04T10:11:02.852Z,25.20
2022-09-04T10:12:02.783Z,25.20
2022-09-04T10:13:02.787Z,25.20
2022-09-04T10:14:02.824Z,25.20
2022-09-04T10:15:02.823Z,25.30
2022-09-04T10:16:03.109Z,25.30
2022-09-04T10:17:03.203Z,25.30
2022-09-04T10:18:03.289Z,25.30
2022-09-04T10:19:03.293Z,25.40
2022-09-04T10:20:03.358Z,25.40
2022-09-04T10:21:03.618Z,25.40
2022-09-04T10:22:03.578Z,25.40
2022-09-04T10:23:02.710Z,25.40
2022-09-04T10:24:03.441Z,25.40
2022-09-04T10:25:03.465Z,25.40
2022-09-04T10:26:03.501Z,25.40
2022-09-04T10:27:03.446Z,25.40
2022-09-04T10:28:03.581Z,25.50
2022-09-04T10:29:02.730Z,25.50
2022-09-04T10:30:02.807Z,25.50
2022-09-04T10:31:02.936Z,25.50
2022-09-04T10:32:02.985Z,25.50
2022-09-04T10:33:03.435Z,25.60
2022-09-04T10:34:03.043Z,25.60
2022-09-04T10:35:03.625Z,25.60
2022-09-04T10:36:02.655Z,25.60
2022-09-04T10:37:02.665Z,25.60
2022-09-04T10:38:02.702Z,25.60
2022-09-04T10:39:03.309Z,25.60
2022-09-04T10:40:03.378Z,25.60
2022-09-04T10:41:03.304Z,25.60
2022-09-04T10:42:03.331Z,25.60
2022-09-04T10:43:03.353Z,25.60
2022-09-04T10:44:03.480Z,25.60
2022-09-04T10:45:03.521Z,25.60
2022-09-04T10:46:03.568Z,25.60
2022-09-04T10:47:03.591Z,25.60
2022-09-04T10:48:03.490Z,25.60
2022-09-04T10:49:02.605Z,25.60
2022-09-04T10:50:02.607Z,25.70
2022-09-04T10:51:02.669Z,25.70
2022-09-04T10:52:02.736Z,25.70
2022-09-04T10:53:02.703Z,25.80
2022-09-04T10:54:06.912Z,25.80
2022-09-04T10:55:02.839Z,25.80
2022-09-04T10:56:03.050Z,25.80
2022-09-04T10:57:02.961Z,25.80
2022-09-04T10:58:03.120Z,25.90
2022-09-04T10:59:03.221Z,25.90
2022-09-04T11:00:03.200Z,25.90
2022-09-04T11:01:03.278Z,25.90
2022-09-04T11:02:03.313Z,26.00
2022-09-04T11:03:03.378Z,26.00
2022-09-04T11:04:03.347Z,26.00
2022-09-04T11:05:03.363Z,26.00
2022-09-04T11:06:03.504Z,26.00
2022-09-04T11:07:02.669Z,26.00
2022-09-04T11:08:02.688Z,26.00
2022-09-04T11:09:02.776Z,26.10
2022-09-04T11:10:02.731Z,26.00
2022-09-04T11:11:02.850Z,26.00
2022-09-04T11:12:02.818Z,26.00
2022-09-04T11:13:02.867Z,26.00
2022-09-04T11:14:03.002Z,26.00
2022-09-04T11:15:02.907Z,25.90
2022-09-04T11:16:03.094Z,25.90
2022-09-04T11:17:03.164Z,25.80
2022-09-04T11:18:03.180Z,25.80
2022-09-04T11:19:03.339Z,25.80
2022-09-04T11:20:03.311Z,25.80
2022-09-04T11:21:03.467Z,25.80
2022-09-04T11:22:03.438Z,25.90
2022-09-04T11:23:03.518Z,25.90
2022-09-04T11:24:03.532Z,26.00
2022-09-04T11:25:02.723Z,26.00
2022-09-04T11:26:02.815Z,26.00
2022-09-04T11:27:06.086Z,26.00
2022-09-04T11:28:02.688Z,26.10
2022-09-04T11:29:02.834Z,26.20
2022-09-04T11:30:02.915Z,26.20
2022-09-04T11:31:03.039Z,26.20
2022-09-04T11:32:03.287Z,26.20
2022-09-04T11:33:03.143Z,26.20
2022-09-04T11:34:03.202Z,26.20
2022-09-04T11:35:03.211Z,26.20
2022-09-04T11:36:03.116Z,26.20
2022-09-04T11:37:03.253Z,26.20
2022-09-04T11:38:03.415Z,26.20
2022-09-04T11:39:03.441Z,26.30
2022-09-04T11:40:03.454Z,26.30
2022-09-04T11:41:03.472Z,26.30
2022-09-04T11:42:03.392Z,26.40
2022-09-04T11:43:03.511Z,26.40
2022-09-04T11:44:02.662Z,26.40
2022-09-04T11:45:02.642Z,26.50
2022-09-04T11:46:02.747Z,26.60
2022-09-04T11:47:02.752Z,26.60
2022-09-04T11:48:02.880Z,26.60
2022-09-04T11:49:02.990Z,26.60
2022-09-04T11:50:03.132Z,26.60
2022-09-04T11:51:03.244Z,26.60
2022-09-04T11:52:03.386Z,26.60
2022-09-04T11:53:03.369Z,26.60
2022-09-04T11:54:03.346Z,26.60
2022-09-04T11:55:03.463Z,26.60
2022-09-04T11:56:03.684Z,26.60
2022-09-04T11:57:03.624Z,26.60
2022-09-04T11:58:02.785Z,26.60
2022-09-04T11:59:02.812Z,26.60
2022-09-04T12:00:02.974Z,26.60
2022-09-04T12:01:03.046Z,26.60
2022-09-04T12:02:03.084Z,26.60
2022-09-04T12:03:03.097Z,26.60
2022-09-04T12:04:03.250Z,26.60
2022-09-04T12:05:03.255Z,26.60
2022-09-04T12:06:02.687Z,26.60
2022-09-04T12:07:02.783Z,26.60
2022-09-04T12:08:03.021Z,26.70
2022-09-04T12:09:03.010Z,26.70
2022-09-04T12:10:03.167Z,26.70
2022-09-04T12:11:03.297Z,26.60
2022-09-04T12:12:03.383Z,26.60
2022-09-04T12:13:14.588Z,26.60
2022-09-04T12:14:03.418Z,26.50
2022-09-04T12:15:05.671Z,26.50
2022-09-04T12:16:03.519Z,26.50
2022-09-04T12:17:03.459Z,26.50
2022-09-04T12:18:02.745Z,26.40
2022-09-04T12:19:02.743Z,26.40
2022-09-04T12:20:06.131Z,26.40
2022-09-04T12:21:02.845Z,26.40
2022-09-04T12:22:02.954Z,26.40
2022-09-04T12:23:03.473Z,26.40
2022-09-04T12:24:03.457Z,26.40
2022-09-04T12:25:03.452Z,26.40
2022-09-04T12:26:03.495Z,26.40
2022-09-04T12:27:03.501Z,26.40
2022-09-04T12:28:03.457Z,26.40
2022-09-04T12:29:03.564Z,26.40
2022-09-04T12:30:02.677Z,26.40
2022-09-04T12:31:02.641Z,26.40
2022-09-04T12:32:02.840Z,26.40
2022-09-04T12:33:02.749Z,26.50
2022-09-04T12:34:02.781Z,26.50
2022-09-04T12:35:02.748Z,26.50
2022-09-04T12:36:02.982Z,26.50
2022-09-04T12:37:02.918Z,26.50
2022-09-04T12:38:03.053Z,26.40
2022-09-04T12:39:03.032Z,26.40
2022-09-04T12:40:03.176Z,26.40
2022-09-04T12:41:03.174Z,26.30
2022-09-04T12:42:03.376Z,26.20
2022-09-04T12:43:03.467Z,26.20
2022-09-04T12:44:03.045Z,26.20
2022-09-04T12:45:03.157Z,26.10
2022-09-04T12:46:04.350Z,26.10
2022-09-04T12:47:03.275Z,26.00
2022-09-04T12:48:03.218Z,26.00
2022-09-04T12:49:02.791Z,26.00
2022-09-04T12:50:02.944Z,25.90
2022-09-04T12:51:03.056Z,25.90
2022-09-04T12:52:03.155Z,25.80